Greenfield, Illinois
Current Conditions -  °F | °C
As of 6:15 PM on Sunday 23 Nov 2014 (Local Time) from KIJX Reporting Station
Light Rain Light Rain  
Wind Chill: 52°   Ceiling: 400
Heat Index: 52°   Visibility: 4mi
Dew Point: 51°   Wind: 0mph
Humidity: 96%   Direction: NA
Pressure: 29.29"   Gusts: NA
Location:  39.34°N, 90.21°W
Report Text: KIJX 240015Z AUTO 00000KT 4SM -RA OVC004 11/11 A2929 RMK AO2 P0002 T01110105
Loading
Personal Weather Stations






























Interactive Weather Map New forecast layout! Learn more

10-Day Weather Forecast

Advertisements
Track Severe Weather on mobile